sensor_id;sensor_type;location;lat;lon;timestamp;temperature;humidity
2435;DHT22;1228;51.022;6.764;2023-04-28T00:01:25;12.00;99.90
2435;DHT22;1228;51.022;6.764;2023-04-28T00:03:50;12.00;99.90
2435;DHT22;1228;51.022;6.764;2023-04-28T00:06:17;12.00;99.90
2435;DHT22;1228;51.022;6.764;2023-04-28T00:08:43;12.00;99.90
2435;DHT22;1228;51.022;6.764;2023-04-28T00:11:12;12.00;99.90
2435;DHT22;1228;51.022;6.764;2023-04-28T00:13:38;12.00;99.90
2435;DHT22;1228;51.022;6.764;2023-04-28T00:16:04;12.00;99.90
2435;DHT22;1228;51.022;6.764;2023-04-28T00:18:29;12.10;99.90
2435;DHT22;1228;51.022;6.764;2023-04-28T00:20:55;12.10;99.90
2435;DHT22;1228;51.022;6.764;2023-04-28T00:23:21;12.20;99.90
2435;DHT22;1228;51.022;6.764;2023-04-28T00:25:51;12.20;99.90
2435;DHT22;1228;51.022;6.764;2023-04-28T00:28:16;12.20;99.90
2435;DHT22;1228;51.022;6.764;2023-04-28T00:30:42;12.20;99.90
2435;DHT22;1228;51.022;6.764;2023-04-28T00:33:08;12.20;99.90
2435;DHT22;1228;51.022;6.764;2023-04-28T00:35:33;12.10;99.90
2435;DHT22;1228;51.022;6.764;2023-04-28T00:37:59;12.10;99.90
2435;DHT22;1228;51.022;6.764;2023-04-28T00:40:32;12.10;99.90
2435;DHT22;1228;51.022;6.764;2023-04-28T00:42:58;12.10;99.90
2435;DHT22;1228;51.022;6.764;2023-04-28T00:45:23;12.00;99.90
2435;DHT22;1228;51.022;6.764;2023-04-28T00:47:49;11.90;99.90
2435;DHT22;1228;51.022;6.764;2023-04-28T00:50:15;11.90;99.90
2435;DHT22;1228;51.022;6.764;2023-04-28T00:52:42;11.90;99.90
2435;DHT22;1228;51.022;6.764;2023-04-28T00:55:08;11.90;99.90
2435;DHT22;1228;51.022;6.764;2023-04-28T00:57:35;11.90;99.90
2435;DHT22;1228;51.022;6.764;2023-04-28T01:00:02;11.90;1.00
2435;DHT22;1228;51.022;6.764;2023-04-28T01:02:27;11.80;1.00
2435;DHT22;1228;51.022;6.764;2023-04-28T01:04:55;11.80;1.00
2435;DHT22;1228;51.022;6.764;2023-04-28T01:07:21;11.80;1.00
2435;DHT22;1228;51.022;6.764;2023-04-28T01:09:47;11.80;1.00
2435;DHT22;1228;51.022;6.764;2023-04-28T01:12:13;11.70;1.00
2435;DHT22;1228;51.022;6.764;2023-04-28T01:14:38;11.60;1.00
2435;DHT22;1228;51.022;6.764;2023-04-28T01:17:04;11.50;99.90
2435;DHT22;1228;51.022;6.764;2023-04-28T01:19:30;11.40;1.00
2435;DHT22;1228;51.022;6.764;2023-04-28T01:21:56;11.40;99.90
2435;DHT22;1228;51.022;6.764;2023-04-28T01:24:22;11.40;1.00
2435;DHT22;1228;51.022;6.764;2023-04-28T01:26:47;11.30;99.90
2435;DHT22;1228;51.022;6.764;2023-04-28T01:29:13;11.30;56.40
2435;DHT22;1228;51.022;6.764;2023-04-28T01:31:38;11.30;99.90
2435;DHT22;1228;51.022;6.764;2023-04-28T01:34:04;11.20;99.90
2435;DHT22;1228;51.022;6.764;2023-04-28T01:36:30;11.20;99.90
2435;DHT22;1228;51.022;6.764;2023-04-28T01:38:56;11.10;99.90
2435;DHT22;1228;51.022;6.764;2023-04-28T01:41:21;11.00;99.90
2435;DHT22;1228;51.022;6.764;2023-04-28T01:43:47;10.90;99.90
2435;DHT22;1228;51.022;6.764;2023-04-28T01:46:13;10.90;1.00
2435;DHT22;1228;51.022;6.764;2023-04-28T01:48:38;10.90;1.00
2435;DHT22;1228;51.022;6.764;2023-04-28T01:51:04;10.90;1.00
2435;DHT22;1228;51.022;6.764;2023-04-28T01:53:29;10.90;1.00
2435;DHT22;1228;51.022;6.764;2023-04-28T01:55:55;10.90;1.00
2435;DHT22;1228;51.022;6.764;2023-04-28T01:58:23;11.00;1.00
2435;DHT22;1228;51.022;6.764;2023-04-28T02:00:48;11.00;1.00
2435;DHT22;1228;51.022;6.764;2023-04-28T02:03:14;11.10;1.00
2435;DHT22;1228;51.022;6.764;2023-04-28T02:05:40;11.10;1.00
2435;DHT22;1228;51.022;6.764;2023-04-28T02:08:05;11.10;1.00
2435;DHT22;1228;51.022;6.764;2023-04-28T02:10:31;11.10;1.00
2435;DHT22;1228;51.022;6.764;2023-04-28T02:12:57;11.00;1.00
2435;DHT22;1228;51.022;6.764;2023-04-28T02:15:22;11.00;6.30
2435;DHT22;1228;51.022;6.764;2023-04-28T02:17:48;10.90;5.50
2435;DHT22;1228;51.022;6.764;2023-04-28T02:20:14;10.90;9.00
2435;DHT22;1228;51.022;6.764;2023-04-28T02:22:40;10.90;46.60
2435;DHT22;1228;51.022;6.764;2023-04-28T02:25:06;10.80;99.90
2435;DHT22;1228;51.022;6.764;2023-04-28T02:27:33;10.80;99.90
2435;DHT22;1228;51.022;6.764;2023-04-28T02:30:01;10.70;99.90
2435;DHT22;1228;51.022;6.764;2023-04-28T02:32:27;10.70;99.90
2435;DHT22;1228;51.022;6.764;2023-04-28T02:34:55;10.60;99.90
2435;DHT22;1228;51.022;6.764;2023-04-28T02:37:21;10.60;99.90
2435;DHT22;1228;51.022;6.764;2023-04-28T02:39:47;10.50;99.90
2435;DHT22;1228;51.022;6.764;2023-04-28T02:42:12;10.50;99.90
2435;DHT22;1228;51.022;6.764;2023-04-28T02:44:38;10.40;99.90
2435;DHT22;1228;51.022;6.764;2023-04-28T02:47:04;10.40;99.90
2435;DHT22;1228;51.022;6.764;2023-04-28T02:49:30;10.40;99.90
2435;DHT22;1228;51.022;6.764;2023-04-28T02:51:55;10.40;99.90
2435;DHT22;1228;51.022;6.764;2023-04-28T02:54:21;10.40;99.90
2435;DHT22;1228;51.022;6.764;2023-04-28T02:56:53;10.40;99.90
2435;DHT22;1228;51.022;6.764;2023-04-28T02:59:19;10.40;99.90
2435;DHT22;1228;51.022;6.764;2023-04-28T03:01:45;10.40;99.90
2435;DHT22;1228;51.022;6.764;2023-04-28T03:04:11;10.40;99.90
2435;DHT22;1228;51.022;6.764;2023-04-28T03:06:37;10.40;99.90
2435;DHT22;1228;51.022;6.764;2023-04-28T03:09:02;10.40;99.90
2435;DHT22;1228;51.022;6.764;2023-04-28T03:11:28;10.40;99.90
2435;DHT22;1228;51.022;6.764;2023-04-28T03:13:54;10.40;99.90
2435;DHT22;1228;51.022;6.764;2023-04-28T03:16:19;10.40;99.90
2435;DHT22;1228;51.022;6.764;2023-04-28T03:18:45;10.40;99.90
2435;DHT22;1228;51.022;6.764;2023-04-28T03:21:11;10.40;99.90
2435;DHT22;1228;51.022;6.764;2023-04-28T03:23:36;10.40;99.90
2435;DHT22;1228;51.022;6.764;2023-04-28T03:26:02;10.30;99.90
2435;DHT22;1228;51.022;6.764;2023-04-28T03:28:29;10.30;99.90
2435;DHT22;1228;51.022;6.764;2023-04-28T03:30:54;10.30;99.90
2435;DHT22;1228;51.022;6.764;2023-04-28T03:33:20;10.30;99.90
2435;DHT22;1228;51.022;6.764;2023-04-28T03:35:46;10.20;99.90
2435;DHT22;1228;51.022;6.764;2023-04-28T03:38:11;10.20;99.90
2435;DHT22;1228;51.022;6.764;2023-04-28T03:40:37;10.10;99.90
2435;DHT22;1228;51.022;6.764;2023-04-28T03:43:02;10.10;99.90
2435;DHT22;1228;51.022;6.764;2023-04-28T03:45:28;10.10;99.90
2435;DHT22;1228;51.022;6.764;2023-04-28T03:47:54;10.10;99.90
2435;DHT22;1228;51.022;6.764;2023-04-28T03:50:19;10.00;99.90
2435;DHT22;1228;51.022;6.764;2023-04-28T03:52:45;10.00;99.90
2435;DHT22;1228;51.022;6.764;2023-04-28T03:55:10;9.90;99.90
2435;DHT22;1228;51.022;6.764;2023-04-28T03:57:36;9.90;99.90
2435;DHT22;1228;51.022;6.764;2023-04-28T04:00:02;9.90;99.90
2435;DHT22;1228;51.022;6.764;2023-04-28T04:02:28;9.80;99.90
2435;DHT22;1228;51.022;6.764;2023-04-28T04:04:54;9.80;99.90
2435;DHT22;1228;51.022;6.764;2023-04-28T04:07:21;9.80;99.90
2435;DHT22;1228;51.022;6.764;2023-04-28T04:09:47;9.80;99.90
2435;DHT22;1228;51.022;6.764;2023-04-28T04:12:13;9.80;99.90
2435;DHT22;1228;51.022;6.764;2023-04-28T04:14:38;9.80;99.90
2435;DHT22;1228;51.022;6.764;2023-04-28T04:17:05;9.80;99.90
2435;DHT22;1228;51.022;6.764;2023-04-28T04:19:30;9.80;99.90
2435;DHT22;1228;51.022;6.764;2023-04-28T04:21:56;9.80;99.90
2435;DHT22;1228;51.022;6.764;2023-04-28T04:24:21;9.80;99.90
2435;DHT22;1228;51.022;6.764;2023-04-28T04:26:47;9.90;99.90
2435;DHT22;1228;51.022;6.764;2023-04-28T04:29:12;9.90;99.90
2435;DHT22;1228;51.022;6.764;2023-04-28T04:31:38;9.90;99.90
2435;DHT22;1228;51.022;6.764;2023-04-28T04:34:04;9.90;99.90
2435;DHT22;1228;51.022;6.764;2023-04-28T04:36:30;9.90;99.90
2435;DHT22;1228;51.022;6.764;2023-04-28T04:38:57;9.90;99.90
2435;DHT22;1228;51.022;6.764;2023-04-28T04:41:24;10.00;99.90
2435;DHT22;1228;51.022;6.764;2023-04-28T04:43:50;10.00;99.90
2435;DHT22;1228;51.022;6.764;2023-04-28T04:46:15;10.00;99.90
2435;DHT22;1228;51.022;6.764;2023-04-28T04:48:41;10.10;99.90
2435;DHT22;1228;51.022;6.764;2023-04-28T04:51:07;10.10;99.90
2435;DHT22;1228;51.022;6.764;2023-04-28T04:53:33;10.00;99.90
2435;DHT22;1228;51.022;6.764;2023-04-28T04:55:59;10.00;99.90
2435;DHT22;1228;51.022;6.764;2023-04-28T04:58:25;9.90;99.90
2435;DHT22;1228;51.022;6.764;2023-04-28T05:00:50;10.00;99.90
2435;DHT22;1228;51.022;6.764;2023-04-28T05:03:16;10.00;99.90
2435;DHT22;1228;51.022;6.764;2023-04-28T05:05:42;10.00;99.90
2435;DHT22;1228;51.022;6.764;2023-04-28T05:08:10;10.10;99.90
2435;DHT22;1228;51.022;6.764;2023-04-28T05:10:35;10.20;99.90
2435;DHT22;1228;51.022;6.764;2023-04-28T05:13:01;10.20;99.90
2435;DHT22;1228;51.022;6.764;2023-04-28T05:15:28;10.20;99.90
2435;DHT22;1228;51.022;6.764;2023-04-28T05:17:53;10.20;99.90
2435;DHT22;1228;51.022;6.764;2023-04-28T05:20:19;10.20;99.90
2435;DHT22;1228;51.022;6.764;2023-04-28T05:22:45;10.20;99.90
2435;DHT22;1228;51.022;6.764;2023-04-28T05:25:10;10.30;99.90
2435;DHT22;1228;51.022;6.764;2023-04-28T05:27:36;10.30;99.90
2435;DHT22;1228;51.022;6.764;2023-04-28T05:30:05;10.40;99.90
2435;DHT22;1228;51.022;6.764;2023-04-28T05:32:30;10.40;99.90
2435;DHT22;1228;51.022;6.764;2023-04-28T05:34:56;10.50;99.90
2435;DHT22;1228;51.022;6.764;2023-04-28T05:37:22;10.50;99.90
2435;DHT22;1228;51.022;6.764;2023-04-28T05:39:47;10.50;99.90
2435;DHT22;1228;51.022;6.764;2023-04-28T05:42:13;10.60;99.90
2435;DHT22;1228;51.022;6.764;2023-04-28T05:44:38;10.60;99.90
2435;DHT22;1228;51.022;6.764;2023-04-28T05:47:04;10.70;99.90
2435;DHT22;1228;51.022;6.764;2023-04-28T05:49:29;10.70;99.90
2435;DHT22;1228;51.022;6.764;2023-04-28T05:51:55;10.70;99.90
2435;DHT22;1228;51.022;6.764;2023-04-28T05:54:21;10.80;99.90
2435;DHT22;1228;51.022;6.764;2023-04-28T05:56:46;10.90;99.90
2435;DHT22;1228;51.022;6.764;2023-04-28T05:59:12;10.90;99.90
2435;DHT22;1228;51.022;6.764;2023-04-28T06:01:37;11.00;99.90
2435;DHT22;1228;51.022;6.764;2023-04-28T06:04:03;11.10;99.90
2435;DHT22;1228;51.022;6.764;2023-04-28T06:06:29;11.20;99.90
2435;DHT22;1228;51.022;6.764;2023-04-28T06:08:56;11.20;99.90
2435;DHT22;1228;51.022;6.764;2023-04-28T06:11:22;11.30;99.90
2435;DHT22;1228;51.022;6.764;2023-04-28T06:13:49;11.30;99.90
2435;DHT22;1228;51.022;6.764;2023-04-28T06:16:15;11.30;99.90
2435;DHT22;1228;51.022;6.764;2023-04-28T06:18:42;11.30;99.90
2435;DHT22;1228;51.022;6.764;2023-04-28T06:21:07;11.30;99.90
2435;DHT22;1228;51.022;6.764;2023-04-28T06:23:33;11.30;99.90
2435;DHT22;1228;51.022;6.764;2023-04-28T06:25:59;11.20;99.90
2435;DHT22;1228;51.022;6.764;2023-04-28T06:28:25;11.30;99.90
2435;DHT22;1228;51.022;6.764;2023-04-28T06:30:50;11.30;99.90
2435;DHT22;1228;51.022;6.764;2023-04-28T06:33:16;11.40;99.90
2435;DHT22;1228;51.022;6.764;2023-04-28T06:35:41;11.40;99.90
2435;DHT22;1228;51.022;6.764;2023-04-28T06:38:07;11.50;99.90
2435;DHT22;1228;51.022;6.764;2023-04-28T06:40:33;11.50;99.90
2435;DHT22;1228;51.022;6.764;2023-04-28T06:42:58;11.60;99.90
2435;DHT22;1228;51.022;6.764;2023-04-28T06:45:24;11.70;99.90
2435;DHT22;1228;51.022;6.764;2023-04-28T06:47:50;11.80;99.90
2435;DHT22;1228;51.022;6.764;2023-04-28T06:50:16;12.00;99.90
2435;DHT22;1228;51.022;6.764;2023-04-28T06:52:41;12.10;99.90
2435;DHT22;1228;51.022;6.764;2023-04-28T06:55:08;12.10;99.90
2435;DHT22;1228;51.022;6.764;2023-04-28T06:57:34;12.20;99.90
2435;DHT22;1228;51.022;6.764;2023-04-28T07:00:00;12.20;99.90
2435;DHT22;1228;51.022;6.764;2023-04-28T07:02:25;12.10;99.90
2435;DHT22;1228;51.022;6.764;2023-04-28T07:04:51;12.10;99.90
2435;DHT22;1228;51.022;6.764;2023-04-28T07:07:17;12.00;99.90
2435;DHT22;1228;51.022;6.764;2023-04-28T07:09:42;12.00;99.90
2435;DHT22;1228;51.022;6.764;2023-04-28T07:12:08;12.00;99.90
2435;DHT22;1228;51.022;6.764;2023-04-28T07:14:34;12.10;99.90
2435;DHT22;1228;51.022;6.764;2023-04-28T07:16:59;12.10;99.90
2435;DHT22;1228;51.022;6.764;2023-04-28T07:19:25;12.20;99.90
2435;DHT22;1228;51.022;6.764;2023-04-28T07:21:50;12.10;99.90
2435;DHT22;1228;51.022;6.764;2023-04-28T07:24:16;12.10;99.90
2435;DHT22;1228;51.022;6.764;2023-04-28T07:26:42;12.10;99.90
2435;DHT22;1228;51.022;6.764;2023-04-28T07:29:07;12.20;99.90
2435;DHT22;1228;51.022;6.764;2023-04-28T07:31:33;12.10;99.90
2435;DHT22;1228;51.022;6.764;2023-04-28T07:33:59;12.20;99.90
2435;DHT22;1228;51.022;6.764;2023-04-28T07:36:25;12.40;99.90
2435;DHT22;1228;51.022;6.764;2023-04-28T07:38:51;12.50;99.90
2435;DHT22;1228;51.022;6.764;2023-04-28T07:41:17;12.60;99.90
2435;DHT22;1228;51.022;6.764;2023-04-28T07:43:43;12.70;99.90
2435;DHT22;1228;51.022;6.764;2023-04-28T07:46:09;12.80;99.90
2435;DHT22;1228;51.022;6.764;2023-04-28T07:48:35;13.00;99.90
2435;DHT22;1228;51.022;6.764;2023-04-28T07:51:00;13.10;99.90
2435;DHT22;1228;51.022;6.764;2023-04-28T07:53:27;13.20;99.90
2435;DHT22;1228;51.022;6.764;2023-04-28T07:55:53;13.50;99.90
2435;DHT22;1228;51.022;6.764;2023-04-28T07:58:19;13.80;99.90
2435;DHT22;1228;51.022;6.764;2023-04-28T08:00:44;14.10;99.90
2435;DHT22;1228;51.022;6.764;2023-04-28T08:03:10;14.30;99.90
2435;DHT22;1228;51.022;6.764;2023-04-28T08:05:37;14.80;99.90
2435;DHT22;1228;51.022;6.764;2023-04-28T08:08:03;15.40;99.90
2435;DHT22;1228;51.022;6.764;2023-04-28T08:10:29;15.90;99.90
2435;DHT22;1228;51.022;6.764;2023-04-28T08:12:54;16.30;99.90
2435;DHT22;1228;51.022;6.764;2023-04-28T08:15:20;16.60;99.90
2435;DHT22;1228;51.022;6.764;2023-04-28T08:17:45;16.90;99.90
2435;DHT22;1228;51.022;6.764;2023-04-28T08:20:12;16.90;99.90
2435;DHT22;1228;51.022;6.764;2023-04-28T08:22:39;16.90;99.90
2435;DHT22;1228;51.022;6.764;2023-04-28T08:25:06;16.90;99.90
2435;DHT22;1228;51.022;6.764;2023-04-28T08:27:32;16.90;99.90
2435;DHT22;1228;51.022;6.764;2023-04-28T08:29:58;16.90;99.90
2435;DHT22;1228;51.022;6.764;2023-04-28T08:32:24;16.90;99.90
2435;DHT22;1228;51.022;6.764;2023-04-28T08:34:49;16.90;99.90
2435;DHT22;1228;51.022;6.764;2023-04-28T08:37:15;17.00;99.90
2435;DHT22;1228;51.022;6.764;2023-04-28T08:39:41;16.90;99.90
2435;DHT22;1228;51.022;6.764;2023-04-28T08:42:07;16.80;99.90
2435;DHT22;1228;51.022;6.764;2023-04-28T08:44:37;16.60;99.90
2435;DHT22;1228;51.022;6.764;2023-04-28T08:47:12;16.30;99.90
2435;DHT22;1228;51.022;6.764;2023-04-28T08:49:39;16.00;99.90
2435;DHT22;1228;51.022;6.764;2023-04-28T08:52:12;15.70;99.90
2435;DHT22;1228;51.022;6.764;2023-04-28T08:54:41;15.60;99.90
2435;DHT22;1228;51.022;6.764;2023-04-28T08:57:09;15.40;99.90
2435;DHT22;1228;51.022;6.764;2023-04-28T08:59:39;15.30;99.90
2435;DHT22;1228;51.022;6.764;2023-04-28T09:02:09;15.10;99.90
2435;DHT22;1228;51.022;6.764;2023-04-28T09:04:35;14.90;99.90
2435;DHT22;1228;51.022;6.764;2023-04-28T09:07:01;14.70;99.90
2435;DHT22;1228;51.022;6.764;2023-04-28T09:09:28;14.60;99.90
2435;DHT22;1228;51.022;6.764;2023-04-28T09:12:01;14.40;99.90
2435;DHT22;1228;51.022;6.764;2023-04-28T09:14:29;14.30;99.90
2435;DHT22;1228;51.022;6.764;2023-04-28T09:16:56;14.20;99.90
2435;DHT22;1228;51.022;6.764;2023-04-28T09:19:22;14.20;99.90
2435;DHT22;1228;51.022;6.764;2023-04-28T09:21:52;14.20;99.90
2435;DHT22;1228;51.022;6.764;2023-04-28T09:24:44;14.20;99.90
2435;DHT22;1228;51.022;6.764;2023-04-28T09:27:11;14.10;99.90
2435;DHT22;1228;51.022;6.764;2023-04-28T09:29:37;14.20;99.90
2435;DHT22;1228;51.022;6.764;2023-04-28T09:34:47;14.30;99.90
2435;DHT22;1228;51.022;6.764;2023-04-28T09:37:19;14.30;99.90
2435;DHT22;1228;51.022;6.764;2023-04-28T09:39:46;14.20;99.90
2435;DHT22;1228;51.022;6.764;2023-04-28T09:45:12;14.20;99.90
2435;DHT22;1228;51.022;6.764;2023-04-28T09:47:44;14.10;99.90
2435;DHT22;1228;51.022;6.764;2023-04-28T09:50:12;14.10;99.90
2435;DHT22;1228;51.022;6.764;2023-04-28T09:52:55;14.20;99.90
2435;DHT22;1228;51.022;6.764;2023-04-28T09:55:21;14.30;99.90
2435;DHT22;1228;51.022;6.764;2023-04-28T09:57:48;14.20;99.90
2435;DHT22;1228;51.022;6.764;2023-04-28T10:00:18;14.20;99.90
2435;DHT22;1228;51.022;6.764;2023-04-28T10:02:44;14.20;99.90
2435;DHT22;1228;51.022;6.764;2023-04-28T10:05:10;14.30;99.90
2435;DHT22;1228;51.022;6.764;2023-04-28T10:07:37;14.30;99.90
2435;DHT22;1228;51.022;6.764;2023-04-28T10:10:03;14.30;99.90
2435;DHT22;1228;51.022;6.764;2023-04-28T10:12:29;14.40;99.90
2435;DHT22;1228;51.022;6.764;2023-04-28T10:14:57;14.50;99.90
2435;DHT22;1228;51.022;6.764;2023-04-28T10:17:23;14.50;99.90
2435;DHT22;1228;51.022;6.764;2023-04-28T10:19:54;14.40;99.90
2435;DHT22;1228;51.022;6.764;2023-04-28T10:25:31;14.40;99.90
2435;DHT22;1228;51.022;6.764;2023-04-28T10:27:57;14.40;99.90
2435;DHT22;1228;51.022;6.764;2023-04-28T10:30:26;14.50;99.90
2435;DHT22;1228;51.022;6.764;2023-04-28T10:33:21;14.60;99.90
2435;DHT22;1228;51.022;6.764;2023-04-28T10:35:47;14.60;99.90
2435;DHT22;1228;51.022;6.764;2023-04-28T10:38:17;14.60;99.90
2435;DHT22;1228;51.022;6.764;2023-04-28T10:40:53;14.70;99.90
2435;DHT22;1228;51.022;6.764;2023-04-28T10:56:29;16.50;99.90
2435;DHT22;1228;51.022;6.764;2023-04-28T10:58:57;16.70;99.90
2435;DHT22;1228;51.022;6.764;2023-04-28T11:01:27;17.00;99.90
2435;DHT22;1228;51.022;6.764;2023-04-28T11:03:55;17.40;99.90
2435;DHT22;1228;51.022;6.764;2023-04-28T11:09:00;18.50;99.90
2435;DHT22;1228;51.022;6.764;2023-04-28T11:11:29;19.10;99.90
2435;DHT22;1228;51.022;6.764;2023-04-28T11:16:52;20.20;99.90
2435;DHT22;1228;51.022;6.764;2023-04-28T11:19:25;20.40;99.90
2435;DHT22;1228;51.022;6.764;2023-04-28T11:21:52;20.40;99.90
2435;DHT22;1228;51.022;6.764;2023-04-28T11:24:20;20.00;99.90
2435;DHT22;1228;51.022;6.764;2023-04-28T11:26:47;19.80;99.90
2435;DHT22;1228;51.022;6.764;2023-04-28T11:29:13;19.70;99.90
2435;DHT22;1228;51.022;6.764;2023-04-28T11:31:51;20.00;99.90
2435;DHT22;1228;51.022;6.764;2023-04-28T11:34:20;20.10;99.90
2435;DHT22;1228;51.022;6.764;2023-04-28T11:36:47;20.30;99.90
2435;DHT22;1228;51.022;6.764;2023-04-28T11:39:12;20.50;99.90
2435;DHT22;1228;51.022;6.764;2023-04-28T11:41:45;20.60;99.90
2435;DHT22;1228;51.022;6.764;2023-04-28T11:44:21;20.90;99.90
2435;DHT22;1228;51.022;6.764;2023-04-28T11:46:49;21.50;99.90
2435;DHT22;1228;51.022;6.764;2023-04-28T11:49:17;22.00;99.90
2435;DHT22;1228;51.022;6.764;2023-04-28T11:51:43;22.00;99.90
2435;DHT22;1228;51.022;6.764;2023-04-28T11:54:25;22.00;99.90
2435;DHT22;1228;51.022;6.764;2023-04-28T11:56:52;22.30;99.90
2435;DHT22;1228;51.022;6.764;2023-04-28T11:59:23;22.30;99.90
2435;DHT22;1228;51.022;6.764;2023-04-28T12:01:56;22.30;99.90
2435;DHT22;1228;51.022;6.764;2023-04-28T12:04:34;22.10;99.90
2435;DHT22;1228;51.022;6.764;2023-04-28T12:07:03;21.70;99.90
2435;DHT22;1228;51.022;6.764;2023-04-28T12:09:30;21.70;99.90
2435;DHT22;1228;51.022;6.764;2023-04-28T12:12:10;21.70;99.90
2435;DHT22;1228;51.022;6.764;2023-04-28T12:14:58;21.70;99.90
2435;DHT22;1228;51.022;6.764;2023-04-28T12:17:33;21.90;99.90
2435;DHT22;1228;51.022;6.764;2023-04-28T12:20:04;22.00;99.90
2435;DHT22;1228;51.022;6.764;2023-04-28T12:22:48;21.90;99.90
2435;DHT22;1228;51.022;6.764;2023-04-28T12:25:16;21.70;99.90
2435;DHT22;1228;51.022;6.764;2023-04-28T12:28:01;21.70;99.90
2435;DHT22;1228;51.022;6.764;2023-04-28T12:30:28;21.60;99.90
2435;DHT22;1228;51.022;6.764;2023-04-28T12:32:54;21.40;99.90
2435;DHT22;1228;51.022;6.764;2023-04-28T12:35:21;21.40;99.90
2435;DHT22;1228;51.022;6.764;2023-04-28T12:37:47;21.50;99.90
2435;DHT22;1228;51.022;6.764;2023-04-28T12:40:13;21.80;99.90
2435;DHT22;1228;51.022;6.764;2023-04-28T12:42:39;22.00;99.90
2435;DHT22;1228;51.022;6.764;2023-04-28T12:45:05;22.00;99.90
2435;DHT22;1228;51.022;6.764;2023-04-28T12:47:31;22.20;99.90
2435;DHT22;1228;51.022;6.764;2023-04-28T12:49:57;22.60;99.90
2435;DHT22;1228;51.022;6.764;2023-04-28T12:52:23;22.80;99.90
2435;DHT22;1228;51.022;6.764;2023-04-28T12:55:17;23.00;99.90
2435;DHT22;1228;51.022;6.764;2023-04-28T12:57:43;22.80;99.90
2435;DHT22;1228;51.022;6.764;2023-04-28T13:00:09;22.40;99.90
2435;DHT22;1228;51.022;6.764;2023-04-28T13:02:34;21.70;99.90
2435;DHT22;1228;51.022;6.764;2023-04-28T13:05:00;21.20;99.90
2435;DHT22;1228;51.022;6.764;2023-04-28T13:07:26;20.80;99.90
2435;DHT22;1228;51.022;6.764;2023-04-28T13:09:52;20.80;99.90
2435;DHT22;1228;51.022;6.764;2023-04-28T13:12:19;21.00;99.90
2435;DHT22;1228;51.022;6.764;2023-04-28T13:14:45;21.40;99.90
2435;DHT22;1228;51.022;6.764;2023-04-28T13:17:11;21.70;99.90
2435;DHT22;1228;51.022;6.764;2023-04-28T13:19:37;22.00;99.90
2435;DHT22;1228;51.022;6.764;2023-04-28T13:22:04;22.30;99.90
2435;DHT22;1228;51.022;6.764;2023-04-28T13:24:31;22.60;99.90
2435;DHT22;1228;51.022;6.764;2023-04-28T13:27:00;23.00;99.90
2435;DHT22;1228;51.022;6.764;2023-04-28T13:29:27;23.50;99.90
2435;DHT22;1228;51.022;6.764;2023-04-28T13:31:53;23.70;99.90
2435;DHT22;1228;51.022;6.764;2023-04-28T13:34:18;24.00;99.90
2435;DHT22;1228;51.022;6.764;2023-04-28T13:36:44;23.90;99.90
2435;DHT22;1228;51.022;6.764;2023-04-28T13:39:10;23.60;99.90
2435;DHT22;1228;51.022;6.764;2023-04-28T13:41:36;23.40;99.90
2435;DHT22;1228;51.022;6.764;2023-04-28T13:44:02;23.10;99.90
2435;DHT22;1228;51.022;6.764;2023-04-28T13:46:27;22.60;99.90
2435;DHT22;1228;51.022;6.764;2023-04-28T13:48:53;22.40;99.90
2435;DHT22;1228;51.022;6.764;2023-04-28T13:51:19;22.60;99.90
2435;DHT22;1228;51.022;6.764;2023-04-28T13:53:45;22.70;99.90
2435;DHT22;1228;51.022;6.764;2023-04-28T13:56:11;22.30;99.90
2435;DHT22;1228;51.022;6.764;2023-04-28T13:58:36;22.00;99.90
2435;DHT22;1228;51.022;6.764;2023-04-28T14:01:02;21.80;99.90
2435;DHT22;1228;51.022;6.764;2023-04-28T14:03:30;21.80;99.90
2435;DHT22;1228;51.022;6.764;2023-04-28T14:05:57;22.50;99.90
2435;DHT22;1228;51.022;6.764;2023-04-28T14:08:24;23.20;99.90
2435;DHT22;1228;51.022;6.764;2023-04-28T14:10:50;23.70;99.90
2435;DHT22;1228;51.022;6.764;2023-04-28T14:13:16;24.20;99.90
2435;DHT22;1228;51.022;6.764;2023-04-28T14:15:42;24.40;99.90
2435;DHT22;1228;51.022;6.764;2023-04-28T14:18:09;24.00;99.90
2435;DHT22;1228;51.022;6.764;2023-04-28T14:20:36;23.60;99.90
2435;DHT22;1228;51.022;6.764;2023-04-28T14:23:02;23.40;99.90
2435;DHT22;1228;51.022;6.764;2023-04-28T14:25:28;23.80;99.90
2435;DHT22;1228;51.022;6.764;2023-04-28T14:27:54;24.00;99.90
2435;DHT22;1228;51.022;6.764;2023-04-28T14:30:20;24.00;99.90
2435;DHT22;1228;51.022;6.764;2023-04-28T14:32:46;24.00;99.90
2435;DHT22;1228;51.022;6.764;2023-04-28T14:35:12;23.60;99.90
2435;DHT22;1228;51.022;6.764;2023-04-28T14:37:38;23.30;99.90
2435;DHT22;1228;51.022;6.764;2023-04-28T14:40:05;22.80;99.90
2435;DHT22;1228;51.022;6.764;2023-04-28T14:42:32;22.20;99.90
2435;DHT22;1228;51.022;6.764;2023-04-28T14:45:01;22.00;99.90
2435;DHT22;1228;51.022;6.764;2023-04-28T14:47:27;21.90;99.90
2435;DHT22;1228;51.022;6.764;2023-04-28T14:49:52;22.00;99.90
2435;DHT22;1228;51.022;6.764;2023-04-28T14:52:22;22.20;99.90
2435;DHT22;1228;51.022;6.764;2023-04-28T14:54:50;22.10;99.90
2435;DHT22;1228;51.022;6.764;2023-04-28T14:57:16;22.40;99.90
2435;DHT22;1228;51.022;6.764;2023-04-28T14:59:42;22.30;99.90
2435;DHT22;1228;51.022;6.764;2023-04-28T15:02:08;22.00;99.90
2435;DHT22;1228;51.022;6.764;2023-04-28T15:04:34;21.80;99.90
2435;DHT22;1228;51.022;6.764;2023-04-28T15:06:59;21.80;99.90
2435;DHT22;1228;51.022;6.764;2023-04-28T15:09:26;21.90;99.90
2435;DHT22;1228;51.022;6.764;2023-04-28T15:11:53;21.80;99.90
2435;DHT22;1228;51.022;6.764;2023-04-28T15:14:18;21.70;99.90
2435;DHT22;1228;51.022;6.764;2023-04-28T15:16:44;21.80;99.90
2435;DHT22;1228;51.022;6.764;2023-04-28T15:19:11;21.80;99.90
2435;DHT22;1228;51.022;6.764;2023-04-28T15:21:37;22.00;99.90
2435;DHT22;1228;51.022;6.764;2023-04-28T15:24:03;22.10;99.90
2435;DHT22;1228;51.022;6.764;2023-04-28T15:26:29;22.00;99.90
2435;DHT22;1228;51.022;6.764;2023-04-28T15:28:55;21.50;99.90
2435;DHT22;1228;51.022;6.764;2023-04-28T15:31:20;20.90;99.90
2435;DHT22;1228;51.022;6.764;2023-04-28T15:33:52;20.80;99.90
2435;DHT22;1228;51.022;6.764;2023-04-28T15:36:18;21.00;99.90
2435;DHT22;1228;51.022;6.764;2023-04-28T15:38:48;21.10;99.90
2435;DHT22;1228;51.022;6.764;2023-04-28T15:41:15;21.20;99.90
2435;DHT22;1228;51.022;6.764;2023-04-28T15:43:41;21.10;99.90
2435;DHT22;1228;51.022;6.764;2023-04-28T15:46:07;20.60;99.90
2435;DHT22;1228;51.022;6.764;2023-04-28T15:48:38;20.20;99.90
2435;DHT22;1228;51.022;6.764;2023-04-28T15:51:04;20.00;99.90
2435;DHT22;1228;51.022;6.764;2023-04-28T15:53:30;19.70;99.90
2435;DHT22;1228;51.022;6.764;2023-04-28T15:55:57;19.70;99.90
2435;DHT22;1228;51.022;6.764;2023-04-28T15:58:23;19.60;99.90
2435;DHT22;1228;51.022;6.764;2023-04-28T16:00:48;19.60;99.90
2435;DHT22;1228;51.022;6.764;2023-04-28T16:03:14;19.60;99.90
2435;DHT22;1228;51.022;6.764;2023-04-28T16:05:40;19.30;99.90
2435;DHT22;1228;51.022;6.764;2023-04-28T16:08:05;19.50;99.90
2435;DHT22;1228;51.022;6.764;2023-04-28T16:10:31;19.60;99.90
2435;DHT22;1228;51.022;6.764;2023-04-28T16:12:57;19.30;99.90
2435;DHT22;1228;51.022;6.764;2023-04-28T16:15:23;19.40;99.90
2435;DHT22;1228;51.022;6.764;2023-04-28T16:17:48;19.40;99.90
2435;DHT22;1228;51.022;6.764;2023-04-28T16:20:16;19.60;99.90
2435;DHT22;1228;51.022;6.764;2023-04-28T16:22:41;19.10;99.90
2435;DHT22;1228;51.022;6.764;2023-04-28T16:25:07;18.90;99.90
2435;DHT22;1228;51.022;6.764;2023-04-28T16:27:34;19.10;99.90
2435;DHT22;1228;51.022;6.764;2023-04-28T16:29:59;19.00;99.90